Huntsville, AR

5:20 AM CDT on August 23, 2014 (GMT -0500)
Upper Whorton Creek | Change Station
CLOSE
Current Station
Personal Weather Station
Location: Huntsville, AR
Elevation: 1566 ft
Nearby Weather Stations

Elev 1566 ft 36.02 °N, 93.60 °W | Updated 5 seconds ago

Clear
Clear
71.2 °F
Feels Like 71.2 °F
N
0.0
Wind Variable Wind from North
Gusts 0.0 mph

Today
High -- | Low -- °F
--% Chance of Precip.
Yesterday
High -- | Low -- °F
Precip. -- in
6:39 AM 7:54 PM
Waning Crescent, 4% visible
Pressure 29.97 in
Visibility 10.0 miles
Clouds Clear
Dew Point 67 °F
Humidity 86%
Rainfall 0.00 in
Snow Depth Not available.
UV 0 out of 12
Pollen 9.70 out of 12
Air Quality Not available.
Flu Activity Not available.
METAR KFYV 230953Z AUTO 00000KT 10SM CLR 22/21 A3002 RMK AO2 SLP147 T02170211

More Conditions Fewer Conditions

Pressure 29.97 in
Visibility 10.0 miles
Clouds Clear
Dew Point 67 °F
Humidity 86%
Rainfall 0.00 in
Snow Depth Not available.
UV 0 out of 12
Pollen 9.70 out of 12
Air Quality Not available.
Flu Activity Not available.
METAR KFYV 230953Z AUTO 00000KT 10SM CLR 22/21 A3002 RMK AO2 SLP147 T02170211

More Conditions Fewer Conditions

10-Day Weather Forecast

Almanac

Astronomy

Aug. 23, 2014 Rise Set
Actual Time 6:39 AM CDT 7:54 PM CDT
Civil Twilight 6:12 AM CDT 8:21 PM CDT
Nautical Twilight 5:40 AM CDT 8:53 PM CDT
Astronomical Twilight 5:07 AM CDT 9:26 PM CDT
Moon 4:57 AM CDT 6:39 PM CDT
Length of Visible Light 14h 08m
Length of Day
13h 15m
Tomorrow will be 2m 6s shorter.
Waning Crescent, 4% of the Moon is Illuminated
Today
Waning Crescent
Aug 25
New
Sep 2
First Quarter
Sep 8
Full
Sep 15
Last Quarter

Today's Extremes

State Highs State Lows

Community

WunderPhotos

Upload Photos

1,746,396 photos uploaded!

WunderBlogs® & News

By Dr. Jeff Masters
Director of Meteorology, Weather Underground
By Kari Strenfel
Meteorologist, Weather Underground
By Christopher C. Burt
Weather Historian, Weather Underground
August 23, 2014
August 23, 2014
August 23, 2014

Nearby

Snow Depth

Station Depth Elevation
No new snow has been reported.

Earthquake Activity

City Distance Mag. Time & Date
No recent earthquake activity has been reported nearby.
Minimum magnitude displayed is 2.5.

Coastal Water Temperatures

Place Temperature
No Stations Reporting

Nearby Weather Stations